Time,TemperatureF,DewpointF,PressureIn,WindDirection,WindDirectionDegrees,WindSpeedMPH,WindSpeedGustMPH,Humidity,HourlyPrecipIn,Conditions,Clouds,dailyrainin,SoftwareType,DateUTC
2013-10-03 00:04:00,61.5,56.0,30.20,East,98,0.0,-999.0,82,-99.99,,,0.00,weatherlink.com 1.10,2013-10-03 04:04:00,
2013-10-03 00:19:00,61.3,56.0,30.20,East,98,0.0,-999.0,83,-99.99,,,0.00,weatherlink.com 1.10,2013-10-03 04:19:00,
2013-10-03 00:34:00,61.1,56.0,30.19,East,98,0.0,-999.0,83,-99.99,,,0.00,weatherlink.com 1.10,2013-10-03 04:34:00,
2013-10-03 00:49:00,60.9,56.0,30.19,East,98,0.0,-999.0,83,-99.99,,,0.00,weatherlink.com 1.10,2013-10-03 04:49:00,
2013-10-03 01:04:00,60.7,56.0,30.19,East,98,0.0,-999.0,83,-99.99,,,0.00,weatherlink.com 1.10,2013-10-03 05:04:00,
2013-10-03 01:19:00,60.5,55.0,30.19,East,98,0.0,-999.0,83,-99.99,,,0.00,weatherlink.com 1.10,2013-10-03 05:19:00,
2013-10-03 01:34:00,60.3,55.0,30.20,East,98,0.0,-999.0,83,-99.99,,,0.00,weatherlink.com 1.10,2013-10-03 05:34:00,
2013-10-03 01:50:00,60.1,55.0,30.19,East,98,0.0,-999.0,83,-99.99,,,0.00,weatherlink.com 1.10,2013-10-03 05:50:00,
2013-10-03 02:04:00,59.8,55.0,30.19,East,98,0.0,-999.0,83,-99.99,,,0.00,weatherlink.com 1.10,2013-10-03 06:04:00,
2013-10-03 02:19:00,59.5,54.0,30.19,East,98,0.0,-999.0,83,-99.99,,,0.00,weatherlink.com 1.10,2013-10-03 06:19:00,
2013-10-03 02:34:00,59.3,54.0,30.19,East,98,0.0,-999.0,83,-99.99,,,0.00,weatherlink.com 1.10,2013-10-03 06:34:00,
2013-10-03 02:50:00,59.1,54.0,30.18,East,98,0.0,-999.0,83,-99.99,,,0.00,weatherlink.com 1.10,2013-10-03 06:50:00,
2013-10-03 03:05:00,59.0,54.0,30.18,East,98,0.0,-999.0,83,-99.99,,,0.00,weatherlink.com 1.10,2013-10-03 07:05:00,
2013-10-03 03:20:00,58.9,54.0,30.17,East,98,0.0,-999.0,83,-99.99,,,0.00,weatherlink.com 1.10,2013-10-03 07:20:00,
2013-10-03 03:35:00,58.8,54.0,30.17,East,98,0.0,-999.0,83,-99.99,,,0.00,weatherlink.com 1.10,2013-10-03 07:35:00,
2013-10-03 03:50:00,58.8,54.0,30.17,East,98,0.0,-999.0,84,-99.99,,,0.00,weatherlink.com 1.10,2013-10-03 07:50:00,
2013-10-03 04:05:00,58.7,54.0,30.17,East,98,0.0,-999.0,84,-99.99,,,0.00,weatherlink.com 1.10,2013-10-03 08:05:00,
2013-10-03 04:20:00,58.7,54.0,30.17,East,98,0.0,-999.0,84,-99.99,,,0.00,weatherlink.com 1.10,2013-10-03 08:20:00,
2013-10-03 04:35:00,58.5,54.0,30.17,East,98,0.0,-999.0,84,-99.99,,,0.00,weatherlink.com 1.10,2013-10-03 08:35:00,
2013-10-03 04:50:00,58.6,54.0,30.17,East,98,0.0,-999.0,84,-99.99,,,0.00,weatherlink.com 1.10,2013-10-03 08:50:00,
2013-10-03 05:05:00,58.5,54.0,30.17,East,98,0.0,-999.0,84,-99.99,,,0.00,weatherlink.com 1.10,2013-10-03 09:05:00,
2013-10-03 05:20:00,58.4,54.0,30.17,East,98,0.0,-999.0,84,-99.99,,,0.00,weatherlink.com 1.10,2013-10-03 09:20:00,
2013-10-03 05:36:00,58.3,54.0,30.17,East,98,0.0,-999.0,84,-99.99,,,0.00,weatherlink.com 1.10,2013-10-03 09:36:00,
2013-10-03 05:51:00,58.1,53.0,30.17,East,98,0.0,-999.0,84,-99.99,,,0.00,weatherlink.com 1.10,2013-10-03 09:51:00,
2013-10-03 06:06:00,58.0,53.0,30.18,East,98,0.0,-999.0,84,-99.99,,,0.00,weatherlink.com 1.10,2013-10-03 10:06:00,
2013-10-03 06:21:00,57.8,53.0,30.18,East,98,0.0,-999.0,84,-99.99,,,0.00,weatherlink.com 1.10,2013-10-03 10:21:00,
2013-10-03 06:36:00,57.7,53.0,30.18,East,98,0.0,-999.0,84,-99.99,,,0.00,weatherlink.com 1.10,2013-10-03 10:36:00,
2013-10-03 06:51:00,57.5,53.0,30.18,East,98,0.0,-999.0,84,-99.99,,,0.00,weatherlink.com 1.10,2013-10-03 10:51:00,
2013-10-03 07:06:00,57.4,53.0,30.18,East,98,0.0,-999.0,84,-99.99,,,0.00,weatherlink.com 1.10,2013-10-03 11:06:00,
2013-10-03 07:21:00,57.3,53.0,30.18,East,98,0.0,-999.0,84,-99.99,,,0.00,weatherlink.com 1.10,2013-10-03 11:21:00,
2013-10-03 07:36:00,57.2,52.0,30.20,East,98,0.0,-999.0,84,-99.99,,,0.00,weatherlink.com 1.10,2013-10-03 11:36:00,
2013-10-03 07:51:00,57.2,52.0,30.20,East,98,0.0,-999.0,84,-99.99,,,0.00,weatherlink.com 1.10,2013-10-03 11:51:00,
2013-10-03 08:06:00,57.2,52.0,30.20,East,98,0.0,-999.0,84,-99.99,,,0.00,weatherlink.com 1.10,2013-10-03 12:06:00,
2013-10-03 08:21:00,57.2,53.0,30.20,East,98,0.0,-999.0,85,-99.99,,,0.00,weatherlink.com 1.10,2013-10-03 12:21:00,
2013-10-03 08:36:00,57.5,53.0,30.21,East,98,0.0,-999.0,85,-99.99,,,0.00,weatherlink.com 1.10,2013-10-03 12:36:00,
2013-10-03 08:52:00,58.1,54.0,30.21,East,98,0.0,-999.0,85,-99.99,,,0.00,weatherlink.com 1.10,2013-10-03 12:52:00,
2013-10-03 09:07:00,58.9,55.0,30.22,South,184,0.0,-999.0,86,-99.99,,,0.00,weatherlink.com 1.10,2013-10-03 13:07:00,
2013-10-03 09:22:00,59.9,56.0,30.22,South,184,0.0,-999.0,86,-99.99,,,0.00,weatherlink.com 1.10,2013-10-03 13:22:00,
2013-10-03 09:37:00,61.1,57.0,30.22,South,189,0.0,-999.0,87,-99.99,,,0.00,weatherlink.com 1.10,2013-10-03 13:37:00,
2013-10-03 09:52:00,61.9,58.0,30.22,South,189,0.0,-999.0,87,-99.99,,,0.00,weatherlink.com 1.10,2013-10-03 13:52:00,
2013-10-03 10:07:00,62.9,59.0,30.22,South,189,0.0,-999.0,87,-99.99,,,0.00,weatherlink.com 1.10,2013-10-03 14:07:00,
2013-10-03 10:22:00,64.4,60.0,30.22,SE,138,0.0,-999.0,86,-99.99,,,0.00,weatherlink.com 1.10,2013-10-03 14:22:00,
2013-10-03 10:37:00,65.7,60.0,30.22,SE,138,0.0,-999.0,82,-99.99,,,0.00,weatherlink.com 1.10,2013-10-03 14:37:00,
2013-10-03 10:52:00,67.0,60.0,30.22,SE,138,0.0,-999.0,79,-99.99,,,0.00,weatherlink.com 1.10,2013-10-03 14:52:00,
2013-10-03 11:08:00,68.2,61.0,30.21,NE,52,1.0,-999.0,79,-99.99,,,0.00,weatherlink.com 1.10,2013-10-03 15:08:00,
2013-10-03 11:23:00,70.0,62.0,30.21,WNW,303,0.0,-999.0,75,-99.99,,,0.00,weatherlink.com 1.10,2013-10-03 15:23:00,
2013-10-03 11:38:00,71.8,62.0,30.20,NNW,337,0.0,-999.0,71,-99.99,,,0.00,weatherlink.com 1.10,2013-10-03 15:38:00,
2013-10-03 11:53:00,72.9,63.0,30.20,WNW,282,0.0,-999.0,70,-99.99,,,0.00,weatherlink.com 1.10,2013-10-03 15:53:00,
2013-10-03 12:08:00,73.4,62.0,30.20,NW,319,2.0,-999.0,68,-99.99,,,0.00,weatherlink.com 1.10,2013-10-03 16:08:00,
2013-10-03 12:23:00,73.8,61.0,30.19,NW,308,0.0,-999.0,65,-99.99,,,0.00,weatherlink.com 1.10,2013-10-03 16:23:00,
2013-10-03 12:38:00,74.3,63.0,30.19,North,2,0.0,-999.0,67,-99.99,,,0.00,weatherlink.com 1.10,2013-10-03 16:38:00,
2013-10-03 12:53:00,74.7,62.0,30.19,NW,321,0.0,-999.0,64,-99.99,,,0.00,weatherlink.com 1.10,2013-10-03 16:53:00,
2013-10-03 13:08:00,75.2,63.0,30.18,WSW,248,1.0,-999.0,65,-99.99,,,0.00,weatherlink.com 1.10,2013-10-03 17:08:00,
2013-10-03 13:24:00,75.5,61.0,30.18,WSW,238,0.0,-999.0,62,-99.99,,,0.00,weatherlink.com 1.10,2013-10-03 17:24:00,
2013-10-03 13:39:00,75.6,62.0,30.18,WSW,253,0.0,-999.0,62,-99.99,,,0.00,weatherlink.com 1.10,2013-10-03 17:39:00,
2013-10-03 13:54:00,75.8,61.0,30.18,WNW,282,0.0,-999.0,60,-99.99,,,0.00,weatherlink.com 1.10,2013-10-03 17:54:00,
2013-10-03 14:09:00,76.4,61.0,30.17,NNW,348,0.0,-999.0,59,-99.99,,,0.00,weatherlink.com 1.10,2013-10-03 18:09:00,
2013-10-03 14:24:00,76.9,63.0,30.16,NNE,28,0.0,-999.0,62,-99.99,,,0.00,weatherlink.com 1.10,2013-10-03 18:24:00,
2013-10-03 14:39:00,76.6,61.0,30.16,NNE,28,0.0,-999.0,59,-99.99,,,0.00,weatherlink.com 1.10,2013-10-03 18:39:00,
2013-10-03 14:54:00,75.9,63.0,30.16,NNE,28,0.0,-999.0,64,-99.99,,,0.00,weatherlink.com 1.10,2013-10-03 18:54:00,
2013-10-03 15:09:00,76.0,59.0,30.15,NE,44,0.0,-999.0,56,-99.99,,,0.00,weatherlink.com 1.10,2013-10-03 19:09:00,
2013-10-03 15:24:00,76.8,62.0,30.15,NE,42,0.0,-999.0,61,-99.99,,,0.00,weatherlink.com 1.10,2013-10-03 19:24:00,
2013-10-03 15:39:00,77.1,62.0,30.14,WNW,296,0.0,-999.0,60,-99.99,,,0.00,weatherlink.com 1.10,2013-10-03 19:39:00,
2013-10-03 15:54:00,76.9,62.0,30.14,WNW,296,0.0,-999.0,60,-99.99,,,0.00,weatherlink.com 1.10,2013-10-03 19:54:00,
2013-10-03 16:09:00,76.7,62.0,30.14,WNW,296,0.0,-999.0,60,-99.99,,,0.00,weatherlink.com 1.10,2013-10-03 20:09:00,
2013-10-03 16:25:00,76.8,62.0,30.14,WNW,296,0.0,-999.0,60,-99.99,,,0.00,weatherlink.com 1.10,2013-10-03 20:25:00,
2013-10-03 16:40:00,76.7,62.0,30.14,WNW,296,0.0,-999.0,60,-99.99,,,0.00,weatherlink.com 1.10,2013-10-03 20:40:00,
2013-10-03 16:55:00,76.0,61.0,30.14,WNW,296,0.0,-999.0,60,-99.99,,,0.00,weatherlink.com 1.10,2013-10-03 20:55:00,
2013-10-03 17:10:00,75.3,62.0,30.14,WNW,296,0.0,-999.0,64,-99.99,,,0.00,weatherlink.com 1.10,2013-10-03 21:10:00,
2013-10-03 17:25:00,74.7,62.0,30.14,WNW,296,0.0,-999.0,65,-99.99,,,0.00,weatherlink.com 1.10,2013-10-03 21:25:00,
2013-10-03 17:40:00,74.0,62.0,30.13,WNW,296,0.0,-999.0,66,-99.99,,,0.00,weatherlink.com 1.10,2013-10-03 21:40:00,
2013-10-03 17:55:00,73.5,61.0,30.14,WNW,296,0.0,-999.0,66,-99.99,,,0.00,weatherlink.com 1.10,2013-10-03 21:55:00,
2013-10-03 18:10:00,73.3,62.0,30.14,WNW,296,0.0,-999.0,67,-99.99,,,0.00,weatherlink.com 1.10,2013-10-03 22:10:00,
2013-10-03 18:25:00,73.2,62.0,30.13,WNW,296,0.0,-999.0,67,-99.99,,,0.00,weatherlink.com 1.10,2013-10-03 22:25:00,
2013-10-03 18:40:00,72.9,61.0,30.14,WNW,296,0.0,-999.0,67,-99.99,,,0.00,weatherlink.com 1.10,2013-10-03 22:40:00,
2013-10-03 18:55:00,72.2,61.0,30.14,WNW,296,0.0,-999.0,68,-99.99,,,0.00,weatherlink.com 1.10,2013-10-03 22:55:00,
2013-10-03 19:10:00,71.0,61.0,30.15,WNW,296,0.0,-999.0,70,-99.99,,,0.00,weatherlink.com 1.10,2013-10-03 23:10:00,
2013-10-03 19:25:00,70.0,60.0,30.15,WNW,296,0.0,-999.0,71,-99.99,,,0.00,weatherlink.com 1.10,2013-10-03 23:25:00,
2013-10-03 19:41:00,69.5,60.0,30.15,WNW,296,0.0,-999.0,72,-99.99,,,0.00,weatherlink.com 1.10,2013-10-03 23:41:00,
2013-10-03 19:56:00,68.7,60.0,30.15,WNW,296,0.0,-999.0,74,-99.99,,,0.00,weatherlink.com 1.10,2013-10-03 23:56:00,
2013-10-03 20:11:00,68.0,59.0,30.16,WNW,296,0.0,-999.0,74,-99.99,,,0.00,weatherlink.com 1.10,2013-10-04 00:11:00,
2013-10-03 20:26:00,67.4,59.0,30.16,WNW,296,0.0,-999.0,75,-99.99,,,0.00,weatherlink.com 1.10,2013-10-04 00:26:00,
2013-10-03 20:41:00,66.7,59.0,30.16,WNW,296,0.0,-999.0,76,-99.99,,,0.00,weatherlink.com 1.10,2013-10-04 00:41:00,
2013-10-03 20:56:00,66.1,59.0,30.16,WNW,296,0.0,-999.0,77,-99.99,,,0.00,weatherlink.com 1.10,2013-10-04 00:56:00,
2013-10-03 21:11:00,65.5,58.0,30.17,WNW,296,0.0,-999.0,77,-99.99,,,0.00,weatherlink.com 1.10,2013-10-04 01:11:00,
2013-10-03 21:26:00,65.0,58.0,30.17,WNW,296,0.0,-999.0,78,-99.99,,,0.00,weatherlink.com 1.10,2013-10-04 01:26:00,
2013-10-03 21:41:00,64.5,58.0,30.17,WNW,296,0.0,-999.0,79,-99.99,,,0.00,weatherlink.com 1.10,2013-10-04 01:41:00,
2013-10-03 21:56:00,64.1,57.0,30.17,WNW,296,0.0,-999.0,79,-99.99,,,0.00,weatherlink.com 1.10,2013-10-04 01:56:00,
2013-10-03 22:11:00,63.6,57.0,30.18,WNW,296,0.0,-999.0,80,-99.99,,,0.00,weatherlink.com 1.10,2013-10-04 02:11:00,
2013-10-03 22:26:00,63.2,58.0,30.18,WNW,296,0.0,-999.0,82,-99.99,,,0.00,weatherlink.com 1.10,2013-10-04 02:26:00,
2013-10-03 22:41:00,62.9,57.0,30.18,WNW,296,0.0,-999.0,81,-99.99,,,0.00,weatherlink.com 1.10,2013-10-04 02:41:00,
2013-10-03 22:56:00,62.6,57.0,30.18,WNW,296,0.0,-999.0,81,-99.99,,,0.00,weatherlink.com 1.10,2013-10-04 02:56:00,
2013-10-03 23:12:00,62.3,56.0,30.18,WNW,296,0.0,-999.0,81,-99.99,,,0.00,weatherlink.com 1.10,2013-10-04 03:12:00,
2013-10-03 23:27:00,62.0,56.0,30.18,WNW,296,0.0,-999.0,81,-99.99,,,0.00,weatherlink.com 1.10,2013-10-04 03:27:00,
2013-10-03 23:42:00,61.7,56.0,30.18,WNW,296,0.0,-999.0,82,-99.99,,,0.00,weatherlink.com 1.10,2013-10-04 03:42:00,
2013-10-03 23:57:00,61.4,56.0,30.18,WNW,296,0.0,-999.0,82,-99.99,,,0.00,weatherlink.com 1.10,2013-10-04 03:57:00,